Time;durP1;ratioP1;P1;durP2;ratioP2;P2;SDS_P1;SDS_P2;PMS_P1;PMS_P2;Temp;Humidity;BMP_temperature;BMP_pressure;BME280_temperature;BME280_humidity;BME280_pressure;Samples;Min_cycle;Max_cycle;Signal;HPM_P1;HPM_P2
2022/09/21 00:01:45;;;;;;;5.15;2.88;;;;;;;6.19;100.00;96589.84;5110719;28;24436;-74
2022/09/21 00:04:12;;;;;;;7.30;3.47;;;;;;;6.19;100.00;96587.28;5095401;28;24982;-73
2022/09/21 00:06:38;;;;;;;6.32;3.40;;;;;;;6.16;100.00;96583.09;5106188;28;24437;-73
2022/09/21 00:09:07;;;;;;;1.88;1.42;;;;;;;6.28;100.00;96592.13;5097114;28;24982;-73
2022/09/21 00:11:34;;;;;;;2.10;1.90;;;;;;;6.11;100.00;96584.09;5106721;28;24791;-73
2022/09/21 00:14:04;;;;;;;2.55;2.10;;;;;;;5.99;100.00;96583.59;5101052;28;24460;-74
2022/09/21 00:16:32;;;;;;;4.35;2.70;;;;;;;5.95;100.00;96592.31;5091876;28;24517;-74
2022/09/21 00:18:59;;;;;;;5.63;2.60;;;;;;;5.88;100.00;96590.78;5096828;28;24426;-73
2022/09/21 00:21:27;;;;;;;4.50;2.80;;;;;;;5.90;100.00;96591.59;5091590;28;24430;-73
2022/09/21 00:23:53;;;;;;;4.63;2.75;;;;;;;5.82;100.00;96590.97;5099899;28;24495;-73
2022/09/21 00:26:22;;;;;;;4.43;2.58;;;;;;;5.82;100.00;96594.41;5100732;28;24950;-73
2022/09/21 00:28:53;;;;;;;3.10;2.67;;;;;;;5.98;100.00;96597.38;5108552;28;24430;-74
2022/09/21 00:31:20;;;;;;;3.67;3.05;;;;;;;5.92;100.00;96596.69;5111962;28;24511;-74
2022/09/21 00:33:49;;;;;;;2.75;2.55;;;;;;;5.79;100.00;96593.66;5096062;28;24441;-73
2022/09/21 00:36:17;;;;;;;6.70;4.57;;;;;;;5.95;100.00;96594.06;5100621;28;24558;-74
2022/09/21 00:38:44;;;;;;;9.05;5.07;;;;;;;5.74;100.00;96595.50;5096593;28;24457;-74
2022/09/21 00:41:12;;;;;;;6.72;4.78;;;;;;;5.66;100.00;96590.59;5102786;28;24433;-74
2022/09/21 00:43:45;;;;;;;5.93;4.57;;;;;;;5.58;100.00;96585.69;5111570;28;24433;-74
2022/09/21 00:46:18;;;;;;;5.50;4.20;;;;;;;5.67;100.00;96596.59;5104895;28;24784;-74
2022/09/21 00:48:45;;;;;;;9.77;4.53;;;;;;;5.76;100.00;96589.44;5099891;28;24429;-74
2022/09/21 00:51:13;;;;;;;5.15;3.05;;;;;;;5.88;100.00;96590.78;5102155;28;24433;-74
2022/09/21 00:53:40;;;;;;;4.00;2.63;;;;;;;5.68;100.00;96588.84;5108881;28;24441;-74
2022/09/21 00:56:09;;;;;;;3.97;2.17;;;;;;;5.66;100.00;96589.75;5105965;28;24468;-73
2022/09/21 00:58:40;;;;;;;3.08;2.03;;;;;;;5.63;100.00;96585.56;5097675;28;24442;-74
2022/09/21 01:01:07;;;;;;;4.60;2.00;;;;;;;5.41;100.00;96587.91;5101807;28;24418;-74
2022/09/21 01:03:33;;;;;;;5.05;2.70;;;;;;;5.40;100.00;96591.38;5097367;28;24430;-73
2022/09/21 01:06:00;;;;;;;6.13;2.60;;;;;;;5.47;100.00;96589.47;5103136;28;24433;-73
2022/09/21 01:08:29;;;;;;;3.80;2.65;;;;;;;5.44;100.00;96595.53;5111223;28;24421;-74
2022/09/21 01:11:25;;;;;;;3.58;2.35;;;;;;;5.46;100.00;96580.09;5106102;28;24432;-74
2022/09/21 01:14:05;;;;;;;3.73;2.60;;;;;;;5.59;100.00;96582.22;5109369;28;24461;-74
2022/09/21 01:16:38;;;;;;;4.60;2.30;;;;;;;5.49;100.00;96580.84;5097847;28;24780;-74
2022/09/21 01:19:17;;;;;;;4.00;2.00;;;;;;;5.38;100.00;96590.59;5108209;28;24453;-74
2022/09/21 01:21:52;;;;;;;3.45;2.30;;;;;;;5.34;100.00;96587.28;5105896;28;24970;-74
2022/09/21 01:24:36;;;;;;;6.97;2.53;;;;;;;5.37;100.00;96593.19;5107979;28;24811;-74
2022/09/21 01:27:35;;;;;;;2.85;2.40;;;;;;;5.45;100.00;96592.09;5092947;28;24488;-74
2022/09/21 01:30:07;;;;;;;5.20;3.07;;;;;;;5.53;100.00;96584.16;5104665;28;24506;-74
2022/09/21 01:32:38;;;;;;;3.20;2.35;;;;;;;5.53;100.00;96576.47;5091302;28;24438;-74
2022/09/21 01:35:10;;;;;;;9.02;3.13;;;;;;;5.65;100.00;96588.94;5100216;28;24433;-73
2022/09/21 01:37:41;;;;;;;4.45;2.97;;;;;;;5.59;100.00;96583.97;5102573;28;24855;-73
2022/09/21 01:40:14;;;;;;;7.93;3.88;;;;;;;5.53;100.00;96591.88;5100193;28;24475;-73
2022/09/21 01:42:43;;;;;;;8.18;3.10;;;;;;;5.50;100.00;96591.97;5091125;28;24445;-74
2022/09/21 01:45:15;;;;;;;19.77;2.47;;;;;;;5.51;100.00;96596.22;5105391;28;24433;-73
2022/09/21 01:47:45;;;;;;;10.70;3.10;;;;;;;5.42;100.00;96589.63;5108462;28;25038;-73
2022/09/21 01:50:12;;;;;;;3.83;2.50;;;;;;;5.44;100.00;96594.69;5106354;28;24508;-73
2022/09/21 01:52:44;;;;;;;6.38;2.53;;;;;;;5.47;100.00;96598.03;5108007;28;24818;-73
2022/09/21 01:55:15;;;;;;;12.65;2.40;;;;;;;5.46;100.00;96601.50;5108402;28;24432;-73
2022/09/21 01:57:48;;;;;;;7.63;2.00;;;;;;;5.55;100.00;96592.66;5091274;28;24465;-74
2022/09/21 02:00:16;;;;;;;5.78;2.45;;;;;;;5.40;100.00;96591.38;5109409;28;24428;-73
2022/09/21 02:02:47;;;;;;;12.80;2.08;;;;;;;5.47;100.00;96595.44;5104171;28;24442;-73
2022/09/21 02:05:16;;;;;;;8.27;1.92;;;;;;;5.34;100.00;96601.84;5100367;28;24799;-74
2022/09/21 02:07:43;;;;;;;2.30;1.70;;;;;;;5.21;100.00;96595.38;5096393;28;24534;-74
2022/09/21 02:10:17;;;;;;;7.97;1.88;;;;;;;5.22;100.00;96597.88;5106416;28;24876;-74
2022/09/21 02:12:44;;;;;;;6.38;1.83;;;;;;;5.27;100.00;96601.19;5108790;28;24487;-73
2022/09/21 02:15:11;;;;;;;2.10;1.80;;;;;;;5.01;100.00;96591.63;5108111;28;24512;-73
2022/09/21 02:17:47;;;;;;;3.30;1.65;;;;;;;4.97;100.00;96596.88;5095565;28;24457;-74
2022/09/21 02:20:19;;;;;;;4.28;2.10;;;;;;;5.02;100.00;96600.19;5105243;28;24441;-74
2022/09/21 02:22:57;;;;;;;3.70;2.05;;;;;;;4.83;100.00;96594.72;5099706;28;24970;-74
2022/09/21 02:25:36;;;;;;;3.37;1.80;;;;;;;4.64;100.00;96590.97;5095581;28;25028;-74
2022/09/21 02:28:08;;;;;;;4.30;1.98;;;;;;;4.61;100.00;96594.44;5100284;28;24430;-73
2022/09/21 02:30:36;;;;;;;2.70;1.90;;;;;;;4.66;100.00;96591.75;5101896;28;24799;-73
2022/09/21 02:33:11;;;;;;;1.60;1.45;;;;;;;4.72;100.00;96589.03;5108773;28;24429;-74
2022/09/21 02:35:44;;;;;;;1.95;1.67;;;;;;;4.68;100.00;96588.25;5104153;28;24422;-73
2022/09/21 02:38:17;;;;;;;2.63;1.35;;;;;;;4.54;100.00;96586.06;5100153;28;24468;-73
2022/09/21 02:40:51;;;;;;;4.60;1.40;;;;;;;4.66;100.00;96589.19;5104057;28;25191;-73
2022/09/21 02:43:22;;;;;;;1.70;1.45;;;;;;;4.68;100.00;96585.69;5109073;28;24436;-73
2022/09/21 02:45:52;;;;;;;1.88;1.77;;;;;;;4.55;100.00;96581.75;5102115;28;25010;-74
2022/09/21 02:48:25;;;;;;;3.33;2.10;;;;;;;4.55;100.00;96582.59;5101155;28;24429;-73
2022/09/21 02:50:54;;;;;;;1.60;1.50;;;;;;;4.55;100.00;96579.19;5104179;28;24791;-73
2022/09/21 02:53:25;;;;;;;2.35;1.48;;;;;;;4.72;100.00;96595.00;5109768;28;24429;-73
2022/09/21 02:55:54;;;;;;;2.40;2.00;;;;;;;4.68;100.00;96588.25;5104291;28;24428;-74
2022/09/21 02:58:24;;;;;;;1.98;1.80;;;;;;;4.38;100.00;96587.34;5093265;28;24460;-74
2022/09/21 03:00:50;;;;;;;2.55;1.83;;;;;;;4.36;100.00;96582.22;5101329;28;24437;-73
2022/09/21 03:03:19;;;;;;;4.00;2.05;;;;;;;4.41;100.00;96576.13;5092441;28;24797;-74
2022/09/21 03:05:49;;;;;;;2.47;2.03;;;;;;;4.49;100.00;96581.94;5104066;28;24434;-74
2022/09/21 03:08:16;;;;;;;3.50;1.92;;;;;;;4.51;100.00;96575.03;5108814;28;24434;-73
2022/09/21 03:10:43;;;;;;;3.08;2.22;;;;;;;4.51;100.00;96575.03;5104093;28;24433;-73
2022/09/21 03:13:09;;;;;;;2.85;1.70;;;;;;;4.69;100.00;96578.84;5108867;28;24803;-73
2022/09/21 03:15:36;;;;;;;3.50;1.80;;;;;;;4.59;100.00;96570.53;5110373;28;24433;-73
2022/09/21 03:18:04;;;;;;;6.30;2.10;;;;;;;4.68;100.00;96570.31;5103909;28;24465;-73
2022/09/21 03:20:31;;;;;;;5.53;2.08;;;;;;;4.70;100.00;96572.81;5105745;28;24487;-73
2022/09/21 03:22:59;;;;;;;5.43;1.60;;;;;;;4.58;100.00;96574.81;5113229;28;24520;-73
2022/09/21 03:25:25;;;;;;;12.18;2.65;;;;;;;4.61;100.00;96581.59;5110493;28;25009;-73
2022/09/21 03:27:52;;;;;;;9.98;2.55;;;;;;;4.66;100.00;96584.88;5105280;28;24449;-74
2022/09/21 03:30:19;;;;;;;6.25;1.90;;;;;;;4.73;100.00;96577.88;5096426;28;24441;-73
2022/09/21 03:32:46;;;;;;;5.88;2.28;;;;;;;4.70;100.00;96581.34;5111052;28;25485;-73
2022/09/21 03:35:12;;;;;;;14.13;2.50;;;;;;;4.69;100.00;96581.41;5111337;28;24878;-73
2022/09/21 03:37:39;;;;;;;9.80;2.20;;;;;;;4.50;100.00;96587.00;5111436;28;24438;-73
2022/09/21 03:40:08;;;;;;;16.15;2.40;;;;;;;4.33;100.00;96590.00;5111457;28;24429;-73
2022/09/21 03:42:34;;;;;;;9.45;1.90;;;;;;;4.27;100.00;96587.59;5109471;28;24433;-73
2022/09/21 03:45:01;;;;;;;17.45;1.80;;;;;;;4.17;100.00;96585.31;5111625;28;24428;-73
2022/09/21 03:47:28;;;;;;;34.38;2.58;;;;;;;4.15;100.00;96589.59;5110715;28;24433;-73
2022/09/21 03:49:54;;;;;;;7.03;1.98;;;;;;;4.38;100.00;96587.34;5109084;28;24433;-73
2022/09/21 03:52:21;;;;;;;15.55;1.83;;;;;;;4.35;100.00;96598.50;5108342;28;24437;-73
2022/09/21 03:54:47;;;;;;;10.40;1.70;;;;;;;4.27;100.00;96589.31;5111211;28;24432;-73
2022/09/21 03:57:15;;;;;;;22.38;2.10;;;;;;;4.19;100.00;96589.53;5105536;28;24441;-73
2022/09/21 03:59:41;;;;;;;16.48;2.05;;;;;;;4.07;100.00;96590.63;5107305;28;24454;-73
2022/09/21 04:02:08;;;;;;;7.60;1.90;;;;;;;4.15;100.00;96587.03;5103675;28;24528;-73
2022/09/21 04:04:35;;;;;;;13.82;1.90;;;;;;;4.27;100.00;96589.31;5110845;28;24432;-74
2022/09/21 04:07:01;;;;;;;11.65;1.73;;;;;;;4.32;100.00;96596.00;5111041;28;24517;-74
2022/09/21 04:09:28;;;;;;;11.15;1.92;;;;;;;4.37;100.00;96595.88;5111355;28;24436;-73
2022/09/21 04:11:55;;;;;;;8.20;1.70;;;;;;;4.39;100.00;96601.00;5111262;28;24433;-74
2022/09/21 04:14:23;;;;;;;13.38;2.15;;;;;;;4.32;100.00;96593.44;5103814;28;24994;-74
2022/09/21 04:16:50;;;;;;;18.00;2.50;;;;;;;4.42;100.00;96594.06;5104507;28;24441;-73
2022/09/21 04:19:17;;;;;;;4.93;2.53;;;;;;;4.47;100.00;96599.91;5103589;28;24477;-73
2022/09/21 04:21:44;;;;;;;8.02;2.25;;;;;;;4.44;100.00;96602.53;5112858;28;24437;-73
2022/09/21 04:24:10;;;;;;;11.63;2.28;;;;;;;4.39;100.00;96598.44;5102753;28;24433;-74
2022/09/21 04:26:37;;;;;;;3.97;2.10;;;;;;;4.33;100.00;96599.41;5110248;28;24440;-74
2022/09/21 04:29:03;;;;;;;11.13;2.05;;;;;;;4.37;100.00;96606.16;5104485;28;24432;-73
2022/09/21 04:31:31;;;;;;;7.70;2.10;;;;;;;4.18;100.00;96604.91;5102972;28;24545;-73
2022/09/21 04:33:58;;;;;;;7.50;2.22;;;;;;;4.07;100.00;96603.44;5105752;28;24429;-73
2022/09/21 04:36:26;;;;;;;6.77;2.03;;;;;;;4.01;100.00;96600.22;5091011;28;24437;-73
2022/09/21 04:38:52;;;;;;;11.02;1.85;;;;;;;4.16;100.00;96601.56;5102556;28;24450;-73
2022/09/21 04:41:19;;;;;;;37.15;2.78;;;;;;;3.88;100.00;96602.22;5109993;28;24436;-73
2022/09/21 04:43:46;;;;;;;24.75;2.50;;;;;;;3.89;100.00;96609.00;5095559;28;25002;-73
2022/09/21 04:46:15;;;;;;;17.88;2.00;;;;;;;4.00;100.00;96612.16;5109990;28;24438;-73
2022/09/21 04:48:43;;;;;;;5.28;1.67;;;;;;;4.17;100.00;96608.38;5107668;28;24425;-73
2022/09/21 04:51:10;;;;;;;16.27;2.35;;;;;;;4.03;100.00;96606.13;5109644;28;24533;-73
2022/09/21 04:53:38;;;;;;;11.50;2.10;;;;;;;4.23;100.00;96610.81;5106878;28;24776;-74
2022/09/21 04:56:06;;;;;;;13.13;2.13;;;;;;;4.05;100.00;96605.22;5103426;28;24441;-73
2022/09/21 04:58:33;;;;;;;20.35;2.08;;;;;;;3.94;100.00;96611.47;5094754;28;24460;-74
2022/09/21 05:01:00;;;;;;;12.73;1.73;;;;;;;4.03;100.00;96606.97;5102362;28;24438;-72
2022/09/21 05:03:27;;;;;;;5.47;1.60;;;;;;;4.17;100.00;96609.22;5098476;28;24556;-72
2022/09/21 05:05:57;;;;;;;11.65;1.98;;;;;;;4.24;100.00;96609.91;5109886;28;24429;-72
2022/09/21 05:11:07;;;;;;;9.30;1.90;;;;;;;4.15;100.00;96615.25;5091773;28;24513;-72
2022/09/21 05:13:33;;;;;;;11.00;1.90;;;;;;;4.06;100.00;96624.00;5105896;28;24989;-72
2022/09/21 05:15:59;;;;;;;7.97;1.52;;;;;;;4.04;100.00;96623.19;5102729;28;24434;-72
2022/09/21 05:18:26;;;;;;;7.20;1.60;;;;;;;3.92;100.00;96624.31;5105744;28;24457;-72
2022/09/21 05:20:55;;;;;;;3.67;1.50;;;;;;;3.85;100.00;96623.59;5102547;28;24422;-72
2022/09/21 05:23:22;;;;;;;21.57;2.30;;;;;;;3.80;100.00;96624.59;5099840;28;24422;-73
2022/09/21 05:25:48;;;;;;;9.73;1.85;;;;;;;3.83;100.00;96620.25;5102958;28;24437;-72
2022/09/21 05:28:15;;;;;;;6.97;1.70;;;;;;;3.75;100.00;96629.84;5102963;28;24481;-72
2022/09/21 05:30:43;;;;;;;17.30;2.45;;;;;;;3.63;100.00;96630.09;5102882;28;24437;-72
2022/09/21 05:33:16;;;;;;;10.93;2.03;;;;;;;3.50;100.00;96626.97;5102451;28;24445;-72
2022/09/21 05:35:47;;;;;;;7.05;1.90;;;;;;;3.52;100.00;96632.91;5103008;28;24418;-72
2022/09/21 05:38:18;;;;;;;9.63;1.70;;;;;;;3.70;100.00;96633.38;5103154;28;24450;-73
2022/09/21 05:40:46;;;;;;;8.43;1.30;;;;;;;3.86;100.00;96638.13;5105031;28;24426;-72
2022/09/21 05:43:13;;;;;;;3.20;1.40;;;;;;;3.76;100.00;96640.94;5095471;28;24529;-72
2022/09/21 05:45:44;;;;;;;3.88;1.23;;;;;;;3.52;100.00;96639.72;5107594;28;24426;-72
2022/09/21 05:48:17;;;;;;;6.70;1.70;;;;;;;3.42;100.00;96640.81;5102694;28;24443;-72
2022/09/21 05:50:52;;;;;;;2.08;1.40;;;;;;;3.36;100.00;96645.16;5109903;28;25037;-73
2022/09/21 05:53:36;;;;;;;6.20;1.85;;;;;;;3.47;100.00;96644.94;5098675;28;24982;-72
2022/09/21 05:56:07;;;;;;;2.45;2.20;;;;;;;3.62;100.00;96643.78;5092269;28;24788;-72
2022/09/21 05:58:42;;;;;;;6.47;2.67;;;;;;;3.74;100.00;96638.38;5102644;28;24452;-73
2022/09/21 06:01:35;;;;;;;8.27;3.35;;;;;;;3.91;100.00;96643.16;5101647;28;24980;-73
2022/09/21 06:04:03;;;;;;;13.55;4.03;;;;;;;4.04;100.00;96651.38;5101717;28;24440;-73
2022/09/21 06:06:29;;;;;;;4.18;3.35;;;;;;;4.19;100.00;96647.63;5106863;28;24437;-72
2022/09/21 06:08:57;;;;;;;18.63;4.30;;;;;;;4.22;100.00;96648.38;5093312;28;24426;-74
2022/09/21 06:11:24;;;;;;;16.05;4.38;;;;;;;4.05;100.00;96650.53;5102644;28;24436;-72
2022/09/21 06:13:50;;;;;;;24.50;5.50;;;;;;;3.86;100.00;96647.53;5095577;28;24508;-72
2022/09/21 06:16:17;;;;;;;50.38;5.72;;;;;;;3.83;100.00;96657.84;5106668;28;24433;-72
2022/09/21 06:18:43;;;;;;;23.10;3.92;;;;;;;3.83;100.00;96645.88;5109450;28;24808;-74
2022/09/21 06:21:10;;;;;;;9.88;3.90;;;;;;;4.12;100.00;96650.34;5099676;28;24788;-72
2022/09/21 06:23:36;;;;;;;8.63;3.90;;;;;;;4.30;100.00;96654.22;5095742;28;24477;-72
2022/09/21 06:26:05;;;;;;;11.20;4.35;;;;;;;4.48;100.00;96664.88;5104635;28;24434;-72
2022/09/21 06:28:31;;;;;;;32.45;4.32;;;;;;;4.58;100.00;96656.09;5107874;28;24448;-72
2022/09/21 06:30:58;;;;;;;9.48;3.67;;;;;;;4.73;100.00;96654.84;5106748;28;24433;-72
2022/09/21 06:33:25;;;;;;;14.15;4.05;;;;;;;4.81;100.00;96658.91;5093403;28;24461;-73
2022/09/21 06:35:53;;;;;;;38.80;4.30;;;;;;;4.82;100.00;96654.59;5107500;28;24989;-72
2022/09/21 06:38:20;;;;;;;9.43;3.13;;;;;;;4.98;100.00;96657.63;5104650;28;24780;-73
2022/09/21 06:40:46;;;;;;;50.58;3.55;;;;;;;5.00;100.00;96653.28;5104638;28;24449;-72
2022/09/21 06:43:14;;;;;;;5.43;3.25;;;;;;;5.08;100.00;96659.91;5107233;28;24434;-72
2022/09/21 06:45:41;;;;;;;4.45;2.38;;;;;;;5.20;100.00;96655.34;5104731;28;24434;-72
2022/09/21 06:48:08;;;;;;;17.23;3.33;;;;;;;5.12;100.00;96662.38;5107381;28;25033;-72
2022/09/21 06:50:34;;;;;;;7.95;3.33;;;;;;;5.26;100.00;96655.13;5107826;28;24499;-72
2022/09/21 06:53:01;;;;;;;3.88;2.83;;;;;;;5.44;100.00;96666.63;5111665;28;24433;-72
2022/09/21 06:55:28;;;;;;;6.63;3.38;;;;;;;5.61;100.00;96661.03;5100947;28;24433;-73
2022/09/21 06:58:00;;;;;;;8.60;3.88;;;;;;;5.66;100.00;96669.44;5110404;28;24442;-73
2022/09/21 07:00:27;;;;;;;7.60;4.18;;;;;;;5.87;100.00;96666.25;5098543;28;24452;-72
2022/09/21 07:02:54;;;;;;;5.15;3.92;;;;;;;6.11;100.00;96666.41;5110891;28;24433;-73
2022/09/21 07:05:20;;;;;;;7.72;3.45;;;;;;;6.31;100.00;96658.91;5097261;28;24426;-72
2022/09/21 07:07:47;;;;;;;9.68;4.65;;;;;;;6.41;100.00;96659.44;5111889;28;24440;-72
2022/09/21 07:10:13;;;;;;;8.63;4.70;;;;;;;6.20;100.00;96661.81;5108476;28;25081;-72
2022/09/21 07:12:40;;;;;;;6.60;4.15;;;;;;;6.15;100.00;96657.69;5107436;28;24441;-74
2022/09/21 07:15:09;;;;;;;7.43;4.15;;;;;;;6.41;100.00;96656.88;5103602;28;24960;-73
2022/09/21 07:17:38;;;;;;;8.43;4.30;;;;;;;6.94;100.00;96662.00;5101065;28;24502;-72
2022/09/21 07:20:07;;;;;;;8.33;4.20;;;;;;;6.81;100.00;96660.72;5103620;28;24535;-73
2022/09/21 07:22:34;;;;;;;8.47;4.30;;;;;;;6.90;100.00;96663.00;5106864;28;24430;-73
2022/09/21 07:25:00;;;;;;;9.00;4.22;;;;;;;7.13;100.00;96662.22;5108076;28;24475;-72
2022/09/21 07:27:29;;;;;;;6.53;4.40;;;;;;;7.59;100.00;96665.72;5100319;28;24437;-73
2022/09/21 07:29:55;;;;;;;9.05;4.43;;;;;;;8.04;100.00;96662.28;5107143;28;24434;-72
2022/09/21 07:32:22;;;;;;;5.50;4.30;;;;;;;8.40;100.00;96667.81;5111738;28;24437;-73
2022/09/21 07:34:50;;;;;;;6.43;3.80;;;;;;;8.65;100.00;96658.16;5106161;28;24430;-74
2022/09/21 07:37:16;;;;;;;5.35;4.20;;;;;;;9.01;100.00;96664.44;5097037;28;20806;-73
2022/09/21 07:39:43;;;;;;;6.53;4.03;;;;;;;9.31;100.00;96670.06;5104490;28;21131;-72
2022/09/21 07:42:09;;;;;;;7.30;3.72;;;;;;;9.62;100.00;96666.97;5103735;28;20797;-72
2022/09/21 07:44:35;;;;;;;6.15;3.53;;;;;;;9.89;100.00;96672.63;5108839;28;24438;-73
2022/09/21 07:47:02;;;;;;;3.95;3.50;;;;;;;10.17;100.00;96667.84;5103550;28;24435;-73
2022/09/21 07:49:28;;;;;;;6.97;3.55;;;;;;;10.44;100.00;96669.25;5096439;28;24503;-73
2022/09/21 07:51:57;;;;;;;5.18;3.28;;;;;;;10.64;100.00;96669.09;5108905;28;24430;-73
2022/09/21 07:54:23;;;;;;;6.30;3.50;;;;;;;10.93;100.00;96669.44;5106874;28;24508;-73
2022/09/21 07:59:31;;;;;;;4.32;3.50;;;;;;;11.33;100.00;96669.09;5097117;28;24796;-72
2022/09/21 08:01:58;;;;;;;9.10;3.83;;;;;;;11.50;100.00;96668.25;5100342;28;24436;-73
2022/09/21 08:04:25;;;;;;;5.90;3.67;;;;;;;11.62;100.00;96666.75;5096628;28;24458;-72
2022/09/21 08:06:51;;;;;;;5.00;3.63;;;;;;;11.26;99.27;96662.53;5104390;28;25004;-73
2022/09/21 08:09:19;;;;;;;5.13;3.30;;;;;;;11.58;100.00;96671.25;5109766;28;24990;-73
2022/09/21 08:11:46;;;;;;;5.38;3.72;;;;;;;11.79;100.00;96665.84;5112888;28;24437;-74
2022/09/21 08:14:18;;;;;;;6.60;3.43;;;;;;;11.94;99.41;96674.59;5104158;28;24433;-73
2022/09/21 08:16:45;;;;;;;6.78;3.63;;;;;;;12.21;100.00;96667.94;5102356;28;24444;-73
2022/09/21 08:19:11;;;;;;;8.70;3.92;;;;;;;12.33;100.00;96667.25;5095447;28;24434;-72
2022/09/21 08:21:38;;;;;;;4.97;3.50;;;;;;;12.60;100.00;96662.25;5112420;28;25149;-73
2022/09/21 08:24:05;;;;;;;11.45;3.35;;;;;;;12.55;95.90;96664.28;5095309;28;24796;-73
2022/09/21 08:26:33;;;;;;;5.15;2.60;;;;;;;12.72;95.23;96660.75;5106189;28;24445;-73
2022/09/21 08:29:00;;;;;;;3.58;2.50;;;;;;;12.92;93.75;96666.56;5106591;28;24518;-72
2022/09/21 08:31:27;;;;;;;8.70;3.10;;;;;;;13.06;93.42;96662.22;5111284;28;25001;-73
2022/09/21 08:33:54;;;;;;;7.50;3.40;;;;;;;12.83;93.44;96654.94;5107292;28;25317;-73
2022/09/21 08:36:21;;;;;;;6.07;3.50;;;;;;;13.14;96.78;96664.38;5093789;28;24866;-72
2022/09/21 08:38:48;;;;;;;9.82;3.75;;;;;;;13.62;91.08;96669.38;5107772;28;24441;-73
2022/09/21 08:41:17;;;;;;;10.10;2.88;;;;;;;13.74;88.04;96672.06;5109403;28;24854;-73
2022/09/21 08:43:50;;;;;;;6.57;1.90;;;;;;;13.69;86.39;96668.91;5101179;28;24499;-73
2022/09/21 08:46:19;;;;;;;5.57;2.08;;;;;;;13.78;91.03;96665.72;5095044;28;24815;-73
2022/09/21 08:48:49;;;;;;;3.65;1.63;;;;;;;14.01;85.39;96671.28;5106450;28;24480;-73
2022/09/21 08:51:22;;;;;;;3.53;1.60;;;;;;;14.11;87.87;96667.19;5109959;28;24418;-72
2022/09/21 08:53:52;;;;;;;5.70;2.53;;;;;;;14.08;82.25;96667.38;5109756;28;24457;-73
2022/09/21 08:56:21;;;;;;;7.53;3.42;;;;;;;14.11;83.99;96666.34;5105924;28;24838;-74
2022/09/21 08:58:49;;;;;;;28.20;4.20;;;;;;;14.07;82.86;96659.66;5099063;28;24441;-73
2022/09/21 09:01:31;;;;;;;8.77;2.60;;;;;;;14.00;82.14;96672.22;5095964;28;24942;-72
2022/09/21 09:04:18;;;;;;;4.53;1.88;;;;;;;14.00;83.84;96661.81;5097301;28;24437;-73
2022/09/21 09:06:52;;;;;;;6.72;2.78;;;;;;;13.69;84.97;96668.91;5104347;28;24966;-72
2022/09/21 09:09:34;;;;;;;11.73;4.03;;;;;;;13.72;89.22;96666.13;5106747;28;24425;-73
2022/09/21 09:12:15;;;;;;;7.13;2.60;;;;;;;13.88;88.33;96665.19;5107512;28;24792;-73
2022/09/21 09:15:14;;;;;;;11.07;4.55;;;;;;;13.66;85.43;96658.69;5085944;28;24789;-73
2022/09/21 09:17:49;;;;;;;3.53;1.93;;;;;;;13.68;85.44;96662.03;5060561;28;24451;-73
2022/09/21 09:20:21;;;;;;;5.15;2.35;;;;;;;14.01;87.86;96659.09;5056488;28;25049;-73
2022/09/21 09:22:55;;;;;;;5.78;2.53;;;;;;;14.04;83.12;96656.31;5055312;28;24471;-74
2022/09/21 09:25:23;;;;;;;5.10;2.58;;;;;;;14.16;86.77;96657.31;5055486;28;24427;-73
2022/09/21 09:27:53;;;;;;;7.50;2.10;;;;;;;14.36;85.37;96655.22;5059961;28;24460;-72
2022/09/21 09:30:24;;;;;;;8.77;2.53;;;;;;;14.23;82.60;96645.56;5054448;28;24427;-74
2022/09/21 09:32:57;;;;;;;3.38;1.88;;;;;;;14.33;81.10;96648.44;5054681;28;24427;-73
2022/09/21 09:35:27;;;;;;;4.70;1.45;;;;;;;14.63;84.98;96644.81;5062652;28;24438;-73
2022/09/21 09:37:59;;;;;;;92.40;68.30;;;;;;;14.71;78.73;96648.59;5060691;28;24435;-73
2022/09/21 09:40:42;;;;;;;4.47;2.25;;;;;;;14.63;76.63;96643.03;5056119;28;25042;-73
2022/09/21 09:43:17;;;;;;;3.15;1.63;;;;;;;14.75;79.71;96642.22;5059603;28;24535;-73
2022/09/21 09:46:01;;;;;;;3.88;1.58;;;;;;;14.71;78.39;96645.97;5059032;28;24968;-73
2022/09/21 09:48:42;;;;;;;3.08;1.33;;;;;;;14.80;80.68;96639.34;5059341;28;24439;-73
2022/09/21 09:51:12;;;;;;;3.15;1.40;;;;;;;14.67;79.59;96643.69;5060909;28;24827;-74
2022/09/21 09:53:39;;;;;;;3.83;1.60;;;;;;;14.76;84.33;96643.09;5057922;28;24486;-73
2022/09/21 09:56:06;;;;;;;3.92;1.90;;;;;;;14.89;80.89;96645.72;5054302;28;25042;-73
2022/09/21 09:58:39;;;;;;;4.13;1.23;;;;;;;14.33;75.85;96634.56;5044271;28;24797;-73
2022/09/21 10:01:07;;;;;;;3.60;1.50;;;;;;;13.93;77.61;96645.72;5053284;28;24455;-73
2022/09/21 10:03:35;;;;;;;4.65;1.15;;;;;;;13.60;76.82;96640.00;5042808;28;25042;-73
2022/09/21 10:06:01;;;;;;;2.88;1.10;;;;;;;13.29;77.70;96640.09;5048811;28;24438;-73
2022/09/21 10:08:31;;;;;;;4.75;1.05;;;;;;;13.07;81.23;96644.84;5056155;28;24999;-73
2022/09/21 10:10:57;;;;;;;2.10;0.80;;;;;;;12.95;81.21;96642.97;5053617;28;24424;-73
2022/09/21 10:13:28;;;;;;;6.80;1.23;;;;;;;13.48;80.58;96637.22;5053675;28;24435;-73
2022/09/21 10:15:58;;;;;;;5.57;1.07;;;;;;;13.72;79.78;96634.03;5053926;28;24435;-74
2022/09/21 10:18:29;;;;;;;2.65;1.17;;;;;;;14.09;80.39;96632.59;5049099;28;24507;-73
2022/09/21 10:21:00;;;;;;;2.27;0.80;;;;;;;14.29;81.90;96620.91;5054506;28;24532;-73
2022/09/21 10:23:28;;;;;;;2.03;0.90;;;;;;;14.44;75.33;96619.91;5041799;28;24506;-73
2022/09/21 10:26:01;;;;;;;9.05;1.27;;;;;;;14.53;74.47;96618.50;5048575;28;24430;-73
2022/09/21 10:28:29;;;;;;;2.35;0.98;;;;;;;14.56;77.60;96615.69;5042085;28;24439;-73
2022/09/21 10:31:11;;;;;;;3.17;0.93;;;;;;;14.59;74.61;96618.13;5048678;28;24431;-73
2022/09/21 10:33:49;;;;;;;2.53;1.30;;;;;;;14.64;75.51;96609.97;5051724;28;24434;-73
2022/09/21 10:36:27;;;;;;;2.72;1.17;;;;;;;14.80;76.63;96618.50;5053344;28;20747;-73
2022/09/21 10:38:54;;;;;;;2.45;1.13;;;;;;;14.90;76.05;96616.91;5048755;28;24799;-74
2022/09/21 10:41:20;;;;;;;4.43;1.10;;;;;;;15.27;78.98;96613.59;5049649;28;24530;-73
2022/09/21 10:43:49;;;;;;;2.20;1.00;;;;;;;15.19;73.65;96611.53;5048750;28;24439;-73
2022/09/21 10:46:16;;;;;;;2.78;0.90;;;;;;;15.10;76.92;96609.56;5048991;28;24442;-73
2022/09/21 10:48:46;;;;;;;1.73;0.88;;;;;;;14.95;72.82;96603.59;5053406;28;24442;-73
2022/09/21 10:51:27;;;;;;;3.92;1.50;;;;;;;15.13;70.91;96604.97;5055441;28;24420;-73
2022/09/21 10:53:54;;;;;;;2.60;1.23;;;;;;;15.41;74.05;96603.91;5052120;28;24462;-73
2022/09/21 10:56:21;;;;;;;2.43;0.97;;;;;;;15.13;69.93;96604.97;5048539;28;24431;-73
2022/09/21 10:59:13;;;;;;;1.60;0.88;;;;;;;15.12;71.82;96602.44;5054766;28;24431;-74
2022/09/21 11:01:44;;;;;;;4.55;1.17;;;;;;;14.91;71.83;96600.34;5027825;28;24902;-73
2022/09/21 11:04:19;;;;;;;1.92;0.82;;;;;;;15.09;72.91;96598.28;5048851;28;24458;-73
2022/09/21 11:06:51;;;;;;;4.68;0.90;;;;;;;14.47;66.64;96596.25;5051548;28;24829;-74
2022/09/21 11:09:24;;;;;;;2.75;1.08;;;;;;;14.79;74.45;96602.91;5056117;28;25114;-73
2022/09/21 11:11:58;;;;;;;2.70;0.75;;;;;;;15.17;72.53;96595.16;5060711;28;24526;-73
2022/09/21 11:14:43;;;;;;;1.42;0.90;;;;;;;15.28;71.55;96594.41;5055487;28;24537;-73
2022/09/21 11:17:17;;;;;;;2.70;1.00;;;;;;;15.24;69.10;96605.06;5060748;28;24522;-73
2022/09/21 11:19:51;;;;;;;3.57;1.20;;;;;;;15.17;71.66;96601.22;5058892;28;25085;-73
2022/09/21 11:22:24;;;;;;;2.30;0.90;;;;;;;15.13;70.38;96597.13;5049878;28;25035;-73
2022/09/21 11:24:59;;;;;;;2.67;1.17;;;;;;;14.98;71.69;96600.75;5045702;28;24428;-73
2022/09/21 11:27:32;;;;;;;1.58;1.00;;;;;;;14.36;70.73;96597.91;5049365;28;25228;-73
2022/09/21 11:30:02;;;;;;;2.17;0.70;;;;;;;14.41;72.81;96590.59;5046067;28;24470;-72
2022/09/21 11:32:48;;;;;;;2.45;1.15;;;;;;;14.52;69.58;96593.38;5050503;28;24525;-73
2022/09/21 11:35:47;;;;;;;3.05;0.80;;;;;;;14.64;72.12;96587.34;5060303;28;24430;-73
2022/09/21 11:38:28;;;;;;;2.85;1.00;;;;;;;14.38;66.38;96578.59;5053217;28;24461;-73
2022/09/21 11:41:14;;;;;;;2.67;0.88;;;;;;;14.66;70.53;96580.28;5060704;28;24439;-73
2022/09/21 11:43:57;;;;;;;6.13;1.17;;;;;;;14.77;75.65;96575.19;5060283;28;24435;-73
2022/09/21 11:46:29;;;;;;;4.28;1.20;;;;;;;14.59;70.43;96570.34;5061135;28;24442;-73
2022/09/21 11:49:14;;;;;;;3.03;1.30;;;;;;;14.74;72.58;96574.56;5060779;28;24458;-73
2022/09/21 11:51:59;;;;;;;2.50;1.10;;;;;;;14.90;72.87;96566.53;5060338;28;24804;-73